createdAt,value
2019-05-11T00:00:21.742Z,23.00
2019-05-11T00:05:25.331Z,22.15
2019-05-11T00:10:28.874Z,21.72
2019-05-11T00:15:32.475Z,21.45
2019-05-11T00:20:36.029Z,21.33
2019-05-11T00:25:39.617Z,21.21
2019-05-11T00:30:43.160Z,21.09
2019-05-11T00:35:46.764Z,20.93
2019-05-11T00:40:50.315Z,20.81
2019-05-11T00:45:53.894Z,20.67
2019-05-11T00:50:57.465Z,20.64
2019-05-11T00:56:01.048Z,20.62
2019-05-11T01:01:05.025Z,20.55
2019-05-11T01:06:08.576Z,20.58
2019-05-11T01:11:12.150Z,21.47
2019-05-11T01:16:15.759Z,23.89
2019-05-11T01:21:19.308Z,26.42
2019-05-11T01:26:22.872Z,27.27
2019-05-11T01:31:26.441Z,26.89
2019-05-11T01:36:29.990Z,26.66
2019-05-11T01:41:33.576Z,26.04
2019-05-11T01:46:37.127Z,25.77
2019-05-11T01:51:40.743Z,25.42
2019-05-11T01:56:44.493Z,25.03
2019-05-11T02:01:48.455Z,24.68
2019-05-11T02:06:52.002Z,24.27
2019-05-11T02:11:55.602Z,23.72
2019-05-11T02:16:59.168Z,23.00
2019-05-11T02:22:02.760Z,22.04
2019-05-11T02:27:06.373Z,21.58
2019-05-11T02:32:09.928Z,21.35
2019-05-11T02:37:13.498Z,21.18
2019-05-11T02:42:17.092Z,21.04
2019-05-11T02:47:20.670Z,20.88
2019-05-11T02:52:24.323Z,20.76
2019-05-11T02:57:27.892Z,20.56
2019-05-11T03:02:31.464Z,20.45
2019-05-11T03:07:35.039Z,20.44
2019-05-11T03:12:38.658Z,20.35
2019-05-11T03:17:42.245Z,20.28
2019-05-11T03:22:45.832Z,20.23
2019-05-11T03:27:49.494Z,20.17
2019-05-11T03:32:53.094Z,20.24
2019-05-11T03:37:56.644Z,20.27
2019-05-11T03:43:00.260Z,20.36
2019-05-11T03:48:03.813Z,20.96
2019-05-11T03:53:07.386Z,22.53
2019-05-11T03:58:11.002Z,24.87
2019-05-11T04:03:14.561Z,26.51
2019-05-11T04:08:18.143Z,26.79
2019-05-11T04:13:21.739Z,26.36
2019-05-11T04:18:25.291Z,26.34
2019-05-11T04:23:28.849Z,26.05
2019-05-11T04:28:32.412Z,25.81
2019-05-11T04:33:35.979Z,25.51
2019-05-11T04:38:39.542Z,25.36
2019-05-11T04:43:43.129Z,25.13
2019-05-11T04:48:46.720Z,24.94
2019-05-11T04:53:50.298Z,24.70
2019-05-11T04:58:53.884Z,24.48
2019-05-11T05:04:12.252Z,24.26
2019-05-11T05:09:03.684Z,24.01
2019-05-11T05:14:10.165Z,23.80
2019-05-11T05:19:12.855Z,23.61
2019-05-11T05:24:16.393Z,23.43
2019-05-11T05:29:20.012Z,23.27
2019-05-11T05:34:23.556Z,23.23
2019-05-11T05:39:27.144Z,23.27
2019-05-11T05:44:30.710Z,23.24
2019-05-11T05:49:34.278Z,23.22
2019-05-11T05:54:37.879Z,23.20
2019-05-11T05:59:41.421Z,23.21
2019-05-11T06:04:45.008Z,23.22
2019-05-11T06:09:48.559Z,23.23
2019-05-11T06:14:52.153Z,23.23
2019-05-11T06:19:55.734Z,23.25
2019-05-11T06:24:59.286Z,23.31
2019-05-11T06:30:02.891Z,23.34
2019-05-11T06:35:07.351Z,23.40
2019-05-11T06:40:10.916Z,23.43
2019-05-11T06:45:14.476Z,23.47
2019-05-11T06:50:18.054Z,23.53
2019-05-11T06:55:21.620Z,23.63
2019-05-11T07:00:25.235Z,23.70
2019-05-11T07:05:28.772Z,23.82
2019-05-11T07:10:32.341Z,23.85
2019-05-11T07:15:35.916Z,23.87
2019-05-11T07:20:50.220Z,23.91
2019-05-11T07:25:44.812Z,23.92
2019-05-11T07:30:48.405Z,23.91
2019-05-11T07:35:52.657Z,23.92
2019-05-11T07:40:58.199Z,23.91
2019-05-11T07:46:02.069Z,23.93
2019-05-11T07:51:08.931Z,23.95
2019-05-11T07:56:12.633Z,24.00
2019-05-11T08:01:18.920Z,23.99
2019-05-11T08:06:22.374Z,23.99
2019-05-11T08:11:31.211Z,24.00
2019-05-11T08:16:33.312Z,24.03
2019-05-11T08:21:38.826Z,24.08
2019-05-11T08:26:42.358Z,24.07
2019-05-11T08:31:45.959Z,24.01
2019-05-11T08:36:49.525Z,23.96
2019-05-11T08:41:53.103Z,23.98
2019-05-11T08:46:58.251Z,24.21
2019-05-11T08:52:02.085Z,24.22
2019-05-11T08:57:07.998Z,24.16
2019-05-11T09:02:10.967Z,24.22
2019-05-11T09:07:14.543Z,24.20
2019-05-11T09:12:18.422Z,24.18
2019-05-11T09:17:22.230Z,24.16
2019-05-11T09:22:28.116Z,24.11
2019-05-11T09:27:32.150Z,23.77
2019-05-11T09:32:38.487Z,23.91
2019-05-11T09:37:41.624Z,23.99
2019-05-11T09:42:45.216Z,23.83
2019-05-11T09:47:49.590Z,23.73
2019-05-11T09:52:53.421Z,23.83
2019-05-11T09:57:57.994Z,23.88
2019-05-11T10:03:01.769Z,23.88
2019-05-11T10:08:07.719Z,23.88
2019-05-11T10:13:10.681Z,23.82
2019-05-11T10:18:14.269Z,23.54
2019-05-11T10:23:18.692Z,23.54
2019-05-11T10:28:22.421Z,23.52
2019-05-11T10:33:28.157Z,23.40
2019-05-11T10:38:51.578Z,23.44
2019-05-11T10:43:57.789Z,23.57
2019-05-11T10:49:01.356Z,23.38
2019-05-11T10:54:05.180Z,23.32
2019-05-11T10:59:08.766Z,23.31
2019-05-11T11:04:13.946Z,23.14
2019-05-11T11:09:17.890Z,22.75
2019-05-11T11:14:21.653Z,23.07
2019-05-11T11:19:28.922Z,23.19
2019-05-11T11:24:32.992Z,23.25
2019-05-11T11:29:38.702Z,23.30
2019-05-11T11:34:41.905Z,23.33
2019-05-11T11:39:47.533Z,23.34
2019-05-11T11:44:50.767Z,23.35
2019-05-11T11:49:54.384Z,23.38
2019-05-11T11:54:58.631Z,23.38
2019-05-11T12:00:02.376Z,23.38
2019-05-11T12:05:08.866Z,23.40
2019-05-11T12:10:12.706Z,23.42
2019-05-11T12:15:17.818Z,23.41
2019-05-11T12:20:21.553Z,23.41
2019-05-11T12:25:27.608Z,23.42
2019-05-11T12:30:31.210Z,23.41
2019-05-11T12:35:34.786Z,23.43
2019-05-11T12:40:38.918Z,23.77
2019-05-11T12:45:42.641Z,24.02
2019-05-11T12:50:48.378Z,25.29
2019-05-11T12:55:51.637Z,27.01
2019-05-11T13:07:39.164Z,25.82
2019-05-11T13:17:42.546Z,26.10
2019-05-11T13:27:46.137Z,25.98
2019-05-11T13:37:49.741Z,25.61
2019-05-11T13:47:55.913Z,24.94
2019-05-11T13:57:58.656Z,24.73
2019-05-11T14:08:03.761Z,24.45
2019-05-11T14:18:09.375Z,24.35
2019-05-11T14:28:12.614Z,23.97
2019-05-11T14:38:18.565Z,23.82
2019-05-11T14:48:26.749Z,23.70
2019-05-11T14:58:27.977Z,23.64
2019-05-11T15:08:31.695Z,23.50
2019-05-11T15:18:41.311Z,23.42
2019-05-11T15:28:40.667Z,23.35
2019-05-11T15:38:44.243Z,23.29
2019-05-11T15:48:56.623Z,24.18
2019-05-11T15:58:53.142Z,27.32
2019-05-11T16:08:58.557Z,28.33
2019-05-11T16:19:13.562Z,27.15
2019-05-11T16:29:08.538Z,26.41
2019-05-11T16:39:12.680Z,25.63
2019-05-11T16:49:26.153Z,24.90
2019-05-11T16:59:21.619Z,24.56
2019-05-11T17:09:25.210Z,24.15
2019-05-11T17:19:42.185Z,23.91
2019-05-11T17:29:34.259Z,23.80
2019-05-11T17:39:38.561Z,23.67
2019-05-11T17:49:56.188Z,23.48
2019-05-11T17:59:47.735Z,23.52
2019-05-11T18:09:51.294Z,23.28
2019-05-11T18:19:54.873Z,23.09
2019-05-11T18:29:58.440Z,22.96
2019-05-11T18:40:02.074Z,22.68
2019-05-11T18:50:05.863Z,22.68
2019-05-11T19:00:09.416Z,22.70
2019-05-11T19:10:13.001Z,24.06
2019-05-11T19:20:17.842Z,28.06
2019-05-11T19:30:21.595Z,27.92
2019-05-11T19:40:25.401Z,27.31
2019-05-11T19:50:28.971Z,26.64
2019-05-11T20:00:32.547Z,25.71
2019-05-11T20:10:38.232Z,24.54
2019-05-11T20:20:41.689Z,24.33
2019-05-11T20:30:45.302Z,23.92
2019-05-11T20:40:48.901Z,23.61
2019-05-11T20:50:52.526Z,23.23
2019-05-11T21:00:56.114Z,22.80
2019-05-11T21:10:59.817Z,22.59
2019-05-11T21:21:03.399Z,22.44
2019-05-11T21:31:08.058Z,22.32
2019-05-11T21:41:12.646Z,22.28
2019-05-11T21:51:18.136Z,22.21
2019-05-11T22:01:21.648Z,22.14
2019-05-11T22:11:25.448Z,22.10
2019-05-11T22:21:29.174Z,22.05
2019-05-11T22:31:32.822Z,21.93
2019-05-11T22:41:39.393Z,23.66
2019-05-11T22:51:42.051Z,28.07
2019-05-11T23:01:48.170Z,27.97
2019-05-11T23:11:50.906Z,27.13
2019-05-11T23:21:54.473Z,26.23
2019-05-11T23:31:58.438Z,25.51
2019-05-11T23:42:02.058Z,24.85
2019-05-11T23:52:07.633Z,24.33
